createdAt,value
2022-10-05T00:00:45.022Z,12.46
2022-10-05T00:01:45.077Z,12.54
2022-10-05T00:02:44.997Z,12.56
2022-10-05T00:03:44.985Z,12.52
2022-10-05T00:04:45.042Z,12.39
2022-10-05T00:05:44.969Z,12.42
2022-10-05T00:06:45.303Z,12.42
2022-10-05T00:07:44.939Z,12.48
2022-10-05T00:08:44.939Z,12.44
2022-10-05T00:09:44.968Z,12.29
2022-10-05T00:10:44.909Z,12.31
2022-10-05T00:11:44.896Z,12.26
2022-10-05T00:12:44.888Z,12.09
2022-10-05T00:13:44.873Z,12.15
2022-10-05T00:14:44.864Z,12.15
2022-10-05T00:15:44.859Z,12.15
2022-10-05T00:16:45.260Z,12.12
2022-10-05T00:17:44.824Z,12.09
2022-10-05T00:18:44.819Z,12.01
2022-10-05T00:19:44.808Z,11.90
2022-10-05T00:20:44.824Z,11.96
2022-10-05T00:21:44.781Z,11.75
2022-10-05T00:22:44.778Z,11.80
2022-10-05T00:23:44.767Z,11.77
2022-10-05T00:24:44.751Z,11.86
2022-10-05T00:25:44.760Z,11.87
2022-10-05T00:26:45.101Z,11.80
2022-10-05T00:27:44.719Z,11.70
2022-10-05T00:28:44.707Z,11.77
2022-10-05T00:29:44.697Z,11.89
2022-10-05T00:30:44.703Z,11.78
2022-10-05T00:31:44.839Z,11.93
2022-10-05T00:32:44.674Z,11.90
2022-10-05T00:33:44.660Z,11.87
2022-10-05T00:34:44.633Z,11.94
2022-10-05T00:35:44.652Z,11.82
2022-10-05T00:36:44.978Z,11.90
2022-10-05T00:37:44.607Z,11.85
2022-10-05T00:38:44.588Z,11.99
2022-10-05T00:39:44.587Z,11.94
2022-10-05T00:40:44.587Z,11.87
2022-10-05T00:41:44.563Z,11.93
2022-10-05T00:42:44.541Z,12.04
2022-10-05T00:43:44.531Z,11.85
2022-10-05T00:44:44.526Z,11.97
2022-10-05T00:45:44.585Z,11.87
2022-10-05T00:46:44.750Z,11.97
2022-10-05T00:47:44.494Z,11.99
2022-10-05T00:48:44.481Z,11.97
2022-10-05T00:49:44.466Z,12.01
2022-10-05T00:50:44.464Z,11.99
2022-10-05T00:51:44.454Z,12.08
2022-10-05T00:52:44.458Z,12.02
2022-10-05T00:53:44.418Z,11.99
2022-10-05T00:54:44.414Z,12.01
2022-10-05T00:55:44.416Z,11.99
2022-10-05T00:56:44.736Z,11.99
2022-10-05T00:57:44.383Z,12.04
2022-10-05T00:58:44.362Z,12.01
2022-10-05T00:59:44.360Z,12.05
2022-10-05T01:00:44.356Z,12.13
2022-10-05T01:01:44.330Z,12.13
2022-10-05T01:02:44.359Z,12.08
2022-10-05T01:03:44.307Z,12.12
2022-10-05T01:04:44.317Z,12.13
2022-10-05T01:05:44.299Z,12.11
2022-10-05T01:06:44.626Z,12.09
2022-10-05T01:07:44.271Z,12.19
2022-10-05T01:08:44.272Z,12.15
2022-10-05T01:09:44.261Z,12.12
2022-10-05T01:10:44.239Z,12.15
2022-10-05T01:11:44.217Z,12.11
2022-10-05T01:12:44.211Z,12.19
2022-10-05T01:13:44.195Z,12.11
2022-10-05T01:14:44.182Z,12.24
2022-10-05T01:15:44.188Z,12.13
2022-10-05T01:16:44.549Z,11.96
2022-10-05T01:17:44.157Z,12.01
2022-10-05T01:18:44.137Z,11.93
2022-10-05T01:19:44.133Z,12.01
2022-10-05T01:20:44.141Z,11.87
2022-10-05T01:21:44.126Z,11.85
2022-10-05T01:22:44.092Z,11.90
2022-10-05T01:23:44.095Z,11.85
2022-10-05T01:24:44.098Z,11.86
2022-10-05T01:25:44.222Z,11.87
2022-10-05T01:26:44.545Z,11.86
2022-10-05T01:27:44.053Z,11.83
2022-10-05T01:28:44.033Z,11.96
2022-10-05T01:29:44.022Z,11.90
2022-10-05T01:30:44.020Z,11.96
2022-10-05T01:31:44.086Z,11.80
2022-10-05T01:32:43.978Z,11.87
2022-10-05T01:33:43.967Z,11.80
2022-10-05T01:34:43.957Z,11.93
2022-10-05T01:35:43.947Z,11.97
2022-10-05T01:36:44.400Z,11.82
2022-10-05T01:37:43.932Z,11.74
2022-10-05T01:38:43.919Z,11.86
2022-10-05T01:39:43.909Z,11.87
2022-10-05T01:40:43.974Z,11.85
2022-10-05T01:41:43.899Z,11.77
2022-10-05T01:42:43.874Z,11.89
2022-10-05T01:43:43.856Z,11.86
2022-10-05T01:44:43.850Z,11.85
2022-10-05T01:45:43.885Z,11.99
2022-10-05T01:46:44.188Z,11.96
2022-10-05T01:47:43.826Z,12.01
2022-10-05T01:48:43.799Z,11.97
2022-10-05T01:49:43.796Z,11.90
2022-10-05T01:50:43.783Z,12.04
2022-10-05T01:51:43.791Z,12.01
2022-10-05T01:52:43.755Z,11.94
2022-10-05T01:53:43.756Z,11.97
2022-10-05T01:54:43.739Z,12.02
2022-10-05T01:55:43.721Z,11.93
2022-10-05T01:56:44.064Z,11.99
2022-10-05T01:57:43.730Z,11.85
2022-10-05T01:58:43.689Z,11.86
2022-10-05T01:59:43.676Z,11.97
2022-10-05T02:00:43.742Z,11.93
2022-10-05T02:01:43.674Z,11.89
2022-10-05T02:02:43.724Z,11.96
2022-10-05T02:03:43.640Z,11.87
2022-10-05T02:05:01.613Z,11.85
2022-10-05T02:05:44.608Z,11.85
2022-10-05T02:06:43.775Z,11.75
2022-10-05T02:07:43.586Z,11.89
2022-10-05T02:08:43.582Z,11.78
2022-10-05T02:09:43.571Z,11.82
2022-10-05T02:10:43.557Z,11.75
2022-10-05T02:11:43.564Z,11.77
2022-10-05T02:12:43.556Z,11.85
2022-10-05T02:13:43.527Z,11.85
2022-10-05T02:14:43.514Z,11.78
2022-10-05T02:15:43.578Z,11.80
2022-10-05T02:16:43.927Z,11.72
2022-10-05T02:17:43.472Z,11.89
2022-10-05T02:18:43.468Z,11.87
2022-10-05T02:19:43.460Z,11.87
2022-10-05T02:20:43.438Z,11.78
2022-10-05T02:21:43.428Z,11.77
2022-10-05T02:22:43.436Z,11.71
2022-10-05T02:23:43.413Z,11.62
2022-10-05T02:24:43.401Z,11.72
2022-10-05T02:25:43.383Z,11.74
2022-10-05T02:26:43.612Z,11.77
2022-10-05T02:27:43.377Z,11.85
2022-10-05T02:28:43.371Z,11.80
2022-10-05T02:29:43.341Z,11.74
2022-10-05T02:30:43.347Z,11.70
2022-10-05T02:31:43.402Z,11.70
2022-10-05T02:32:43.315Z,11.71
2022-10-05T02:33:43.294Z,11.74
2022-10-05T02:34:43.281Z,11.72
2022-10-05T02:35:43.278Z,11.74
2022-10-05T02:36:43.470Z,11.74
2022-10-05T02:37:43.267Z,11.74
2022-10-05T02:38:43.253Z,11.68
2022-10-05T02:39:43.227Z,11.75
2022-10-05T02:40:43.214Z,11.71
2022-10-05T02:41:43.211Z,11.70
2022-10-05T02:42:43.232Z,11.72
2022-10-05T02:43:43.182Z,11.85
2022-10-05T02:44:43.191Z,11.80
2022-10-05T02:45:43.216Z,11.72
2022-10-05T02:46:43.401Z,11.72
2022-10-05T02:47:43.148Z,11.72
2022-10-05T02:48:43.140Z,11.78
2022-10-05T02:49:43.121Z,11.68
2022-10-05T02:50:43.109Z,11.70
2022-10-05T02:51:43.098Z,11.68
2022-10-05T02:52:43.083Z,11.70
2022-10-05T02:53:43.093Z,11.70
2022-10-05T02:54:43.092Z,11.72
2022-10-05T02:55:43.080Z,11.67
2022-10-05T02:56:43.348Z,11.71
2022-10-05T02:57:43.029Z,11.72
2022-10-05T02:58:43.051Z,11.72
2022-10-05T02:59:43.004Z,11.65
2022-10-05T03:00:43.049Z,11.70
2022-10-05T03:01:43.038Z,11.67
2022-10-05T03:02:42.967Z,11.56
2022-10-05T03:03:42.979Z,11.65
2022-10-05T03:04:42.946Z,11.62
2022-10-05T03:05:42.934Z,11.61
2022-10-05T03:06:43.289Z,11.67
2022-10-05T03:07:42.929Z,11.62
2022-10-05T03:08:42.920Z,11.62
2022-10-05T03:09:42.896Z,11.70
2022-10-05T03:10:42.881Z,11.59
2022-10-05T03:11:42.869Z,11.71
2022-10-05T03:12:42.863Z,11.59
2022-10-05T03:13:42.875Z,11.68
2022-10-05T03:14:42.834Z,11.65
2022-10-05T03:15:42.888Z,11.65
2022-10-05T03:16:43.017Z,11.53
2022-10-05T03:17:42.798Z,11.67
2022-10-05T03:18:42.792Z,11.47
2022-10-05T03:19:42.808Z,11.62
2022-10-05T03:20:42.765Z,11.52
2022-10-05T03:21:42.752Z,11.61
2022-10-05T03:22:42.746Z,11.62
2022-10-05T03:23:42.731Z,11.59
2022-10-05T03:24:42.733Z,11.62
2022-10-05T03:25:42.720Z,11.56
2022-10-05T03:26:42.891Z,11.54
2022-10-05T03:27:42.700Z,11.53
2022-10-05T03:28:42.676Z,11.49
2022-10-05T03:29:42.685Z,11.54
2022-10-05T03:30:42.652Z,11.57
2022-10-05T03:31:42.640Z,11.59
2022-10-05T03:32:42.660Z,11.61
2022-10-05T03:33:42.640Z,11.61
2022-10-05T03:34:42.680Z,11.43
2022-10-05T03:35:42.646Z,11.50
2022-10-05T03:36:42.759Z,11.46
2022-10-05T03:37:42.625Z,11.54
2022-10-05T03:38:42.598Z,11.49
2022-10-05T03:39:42.589Z,11.53
2022-10-05T03:40:42.568Z,11.56
2022-10-05T03:41:42.577Z,11.59
2022-10-05T03:42:42.542Z,11.61
2022-10-05T03:43:42.508Z,11.56
2022-10-05T03:44:42.514Z,11.64
2022-10-05T03:45:42.502Z,11.53
2022-10-05T03:46:42.473Z,11.54
2022-10-05T03:47:42.466Z,11.49
2022-10-05T03:48:42.478Z,11.56
2022-10-05T03:49:42.439Z,11.67
2022-10-05T03:50:42.449Z,11.59
2022-10-05T03:51:42.423Z,11.54
2022-10-05T03:52:42.417Z,11.54
2022-10-05T03:53:42.396Z,11.68
2022-10-05T03:54:42.391Z,11.64
2022-10-05T03:55:42.391Z,11.59
2022-10-05T03:56:42.363Z,11.65
2022-10-05T03:57:42.349Z,11.71
2022-10-05T03:58:42.346Z,11.65
2022-10-05T03:59:42.338Z,11.70
2022-10-05T04:00:42.329Z,11.57
2022-10-05T04:01:42.408Z,11.57
2022-10-05T04:02:42.381Z,11.67
2022-10-05T04:03:42.290Z,11.64
2022-10-05T04:04:42.348Z,11.80
2022-10-05T04:05:42.260Z,11.72
2022-10-05T04:06:42.262Z,11.62
2022-10-05T04:07:42.237Z,11.71
2022-10-05T04:08:47.434Z,11.61
2022-10-05T04:09:43.235Z,11.59
2022-10-05T04:10:42.215Z,11.70
2022-10-05T04:11:42.206Z,11.67
2022-10-05T04:12:42.179Z,11.68
2022-10-05T04:13:42.182Z,11.67
2022-10-05T04:14:42.162Z,11.61
2022-10-05T04:15:42.169Z,11.59
2022-10-05T04:16:42.156Z,11.62
2022-10-05T04:17:42.243Z,11.67
2022-10-05T04:18:42.122Z,11.64
2022-10-05T04:19:42.107Z,11.56
2022-10-05T04:20:42.154Z,11.64
2022-10-05T04:21:42.096Z,11.59
2022-10-05T04:22:42.078Z,11.53
2022-10-05T04:23:42.066Z,11.64
2022-10-05T04:24:42.048Z,11.54
2022-10-05T04:25:42.035Z,11.61
2022-10-05T04:26:42.047Z,11.54
2022-10-05T04:27:42.014Z,11.59
2022-10-05T04:28:42.100Z,11.52
2022-10-05T04:29:41.993Z,11.52
2022-10-05T04:30:41.983Z,11.43
2022-10-05T04:31:42.047Z,11.43
2022-10-05T04:32:41.963Z,11.41
2022-10-05T04:33:41.946Z,11.50
2022-10-05T04:34:41.934Z,11.41
2022-10-05T04:35:41.930Z,11.43
2022-10-05T04:36:41.935Z,11.43
2022-10-05T04:37:45.668Z,11.44
2022-10-05T04:38:41.898Z,11.46
2022-10-05T04:39:41.877Z,11.49
2022-10-05T04:40:41.921Z,11.35
2022-10-05T04:41:41.860Z,11.50
2022-10-05T04:42:41.864Z,11.41
2022-10-05T04:43:41.839Z,11.54
2022-10-05T04:44:41.821Z,11.59
2022-10-05T04:45:41.817Z,11.59
2022-10-05T04:46:41.891Z,11.68
2022-10-05T04:47:41.804Z,11.56
2022-10-05T04:48:41.785Z,11.52
2022-10-05T04:49:41.765Z,11.68
2022-10-05T04:50:41.760Z,11.59
2022-10-05T04:51:41.750Z,11.70
2022-10-05T04:52:41.821Z,11.70
2022-10-05T04:53:41.741Z,11.75
2022-10-05T04:54:41.711Z,11.68
2022-10-05T04:55:41.705Z,11.68
2022-10-05T04:56:41.687Z,11.82
2022-10-05T04:57:41.682Z,11.65
2022-10-05T04:58:42.677Z,11.68
2022-10-05T04:59:41.663Z,11.77
2022-10-05T05:00:41.717Z,11.78
2022-10-05T05:01:41.637Z,11.90
2022-10-05T05:02:41.627Z,11.97
2022-10-05T05:03:41.732Z,11.89
2022-10-05T05:04:41.638Z,11.85
2022-10-05T05:06:05.013Z,11.93
2022-10-05T05:06:42.575Z,12.01
2022-10-05T05:07:41.581Z,11.96
2022-10-05T05:08:41.650Z,12.08
2022-10-05T05:09:41.560Z,11.97
2022-10-05T05:10:41.624Z,12.08
2022-10-05T05:11:41.528Z,12.11
2022-10-05T05:12:41.508Z,12.21
2022-10-05T05:13:41.499Z,12.11
2022-10-05T05:14:41.500Z,12.13
2022-10-05T05:15:41.548Z,12.15
2022-10-05T05:16:41.473Z,12.09
2022-10-05T05:17:41.459Z,12.23
2022-10-05T05:18:41.450Z,12.21
2022-10-05T05:19:41.449Z,12.13
2022-10-05T05:20:41.462Z,12.12
2022-10-05T05:21:41.407Z,12.15
2022-10-05T05:22:41.403Z,12.15
2022-10-05T05:23:41.397Z,12.09
2022-10-05T05:24:41.415Z,12.13
2022-10-05T05:25:41.360Z,12.06
2022-10-05T05:26:41.360Z,12.11
2022-10-05T05:27:41.341Z,12.19
2022-10-05T05:28:41.427Z,12.06
2022-10-05T05:29:41.335Z,12.08
2022-10-05T05:30:41.307Z,12.08
2022-10-05T05:31:41.343Z,12.04
2022-10-05T05:32:41.292Z,12.06
2022-10-05T05:33:41.280Z,11.99
2022-10-05T05:34:41.279Z,11.99
2022-10-05T05:35:41.394Z,11.97
2022-10-05T05:36:41.247Z,12.02
2022-10-05T05:37:41.229Z,12.04
2022-10-05T05:38:41.239Z,12.05
2022-10-05T05:39:41.207Z,11.99
2022-10-05T05:40:41.236Z,12.02
2022-10-05T05:41:41.190Z,12.01
2022-10-05T05:42:41.181Z,12.15
2022-10-05T05:43:41.209Z,12.08
2022-10-05T05:44:41.149Z,12.04
2022-10-05T05:45:41.163Z,12.05
2022-10-05T05:47:02.853Z,11.96
2022-10-05T05:47:42.184Z,12.01
2022-10-05T05:48:41.112Z,11.99
2022-10-05T05:49:41.098Z,12.01
2022-10-05T05:50:41.101Z,12.09
2022-10-05T05:51:41.077Z,12.08
2022-10-05T05:52:41.066Z,12.04
2022-10-05T05:53:41.060Z,12.04
2022-10-05T05:54:41.038Z,12.12
2022-10-05T05:55:41.052Z,12.12
2022-10-05T05:56:41.036Z,12.02
2022-10-05T05:57:41.004Z,12.11
2022-10-05T05:58:40.993Z,12.12
2022-10-05T05:59:40.988Z,12.09
2022-10-05T06:00:40.983Z,12.08
2022-10-05T06:01:44.495Z,12.06
2022-10-05T06:02:41.122Z,12.08
2022-10-05T06:03:40.937Z,12.16
2022-10-05T06:04:40.924Z,12.15
2022-10-05T06:05:40.933Z,12.11
2022-10-05T06:06:40.910Z,12.16
2022-10-05T06:07:40.900Z,12.24
2022-10-05T06:08:40.888Z,12.31
2022-10-05T06:09:40.878Z,12.23
2022-10-05T06:10:40.874Z,12.29
2022-10-05T06:11:40.846Z,12.31
2022-10-05T06:12:40.993Z,12.34
2022-10-05T06:13:40.833Z,12.37
2022-10-05T06:14:40.813Z,12.44
2022-10-05T06:15:40.851Z,12.33
2022-10-05T06:16:40.871Z,12.41
2022-10-05T06:17:40.778Z,12.41
2022-10-05T06:18:40.768Z,12.46
2022-10-05T06:19:40.762Z,12.39
2022-10-05T06:20:40.749Z,12.46
2022-10-05T06:21:40.751Z,12.46
2022-10-05T06:22:40.724Z,12.44
2022-10-05T06:23:40.713Z,12.45
2022-10-05T06:24:40.702Z,12.49
2022-10-05T06:25:40.698Z,12.52
2022-10-05T06:26:40.714Z,12.59
2022-10-05T06:27:40.669Z,12.60
2022-10-05T06:28:40.801Z,12.66
2022-10-05T06:29:40.639Z,12.59
2022-10-05T06:30:40.674Z,12.69
2022-10-05T06:31:40.671Z,12.63
2022-10-05T06:32:40.615Z,12.71
2022-10-05T06:33:40.596Z,12.75
2022-10-05T06:34:40.630Z,12.79
2022-10-05T06:35:40.581Z,12.75
2022-10-05T06:36:40.585Z,12.78
2022-10-05T06:37:40.561Z,12.77
2022-10-05T06:38:40.553Z,12.81
2022-10-05T06:39:40.538Z,12.84
2022-10-05T06:40:41.414Z,12.81
2022-10-05T06:41:40.531Z,12.79
2022-10-05T06:42:40.505Z,12.84
2022-10-05T06:43:40.491Z,12.78
2022-10-05T06:44:40.524Z,12.81
2022-10-05T06:45:40.546Z,12.84
2022-10-05T06:46:40.483Z,12.85
2022-10-05T06:47:40.452Z,12.84
2022-10-05T06:48:40.443Z,12.85
2022-10-05T06:49:40.426Z,12.88
2022-10-05T06:50:40.408Z,12.95
2022-10-05T06:51:40.413Z,12.88
2022-10-05T06:52:40.388Z,12.92
2022-10-05T06:53:40.381Z,12.96
2022-10-05T06:54:40.371Z,13.02
2022-10-05T06:55:40.357Z,13.00
2022-10-05T06:56:40.361Z,13.11
2022-10-05T06:57:40.337Z,13.04
2022-10-05T06:58:40.325Z,13.07
2022-10-05T06:59:40.312Z,13.17
2022-10-05T07:00:40.328Z,13.18
2022-10-05T07:01:40.496Z,13.17
2022-10-05T07:02:40.430Z,13.17
2022-10-05T07:03:40.469Z,13.17
2022-10-05T07:04:40.263Z,13.14
2022-10-05T07:05:40.253Z,13.15
2022-10-05T07:06:40.237Z,13.25
2022-10-05T07:07:40.237Z,13.22
2022-10-05T07:08:40.205Z,13.27
2022-10-05T07:09:40.193Z,13.22
2022-10-05T07:10:40.191Z,13.20
2022-10-05T07:11:40.188Z,13.22
2022-10-05T07:12:40.189Z,13.22
2022-10-05T07:13:40.160Z,13.32
2022-10-05T07:14:40.144Z,13.33
2022-10-05T07:15:40.130Z,13.37
2022-10-05T07:16:40.225Z,13.37
2022-10-05T07:17:40.127Z,13.41
2022-10-05T07:18:40.110Z,13.46
2022-10-05T07:19:40.082Z,13.46
2022-10-05T07:20:40.076Z,13.51
2022-10-05T07:21:40.081Z,13.51
2022-10-05T07:22:40.076Z,13.54
2022-10-05T07:23:40.053Z,13.47
2022-10-05T07:24:40.079Z,13.47
2022-10-05T07:25:40.016Z,13.47
2022-10-05T07:26:40.006Z,13.54
2022-10-05T07:27:40.019Z,13.61
2022-10-05T07:28:40.091Z,13.55
2022-10-05T07:29:39.978Z,13.56
2022-10-05T07:30:39.999Z,13.62
2022-10-05T07:31:40.030Z,13.69
2022-10-05T07:32:39.986Z,13.62
2022-10-05T07:33:39.935Z,13.63
2022-10-05T07:34:39.914Z,13.65
2022-10-05T07:35:39.908Z,13.70
2022-10-05T07:36:39.892Z,13.67
2022-10-05T07:37:39.892Z,13.74
2022-10-05T07:38:39.869Z,13.77
2022-10-05T07:39:59.546Z,13.77
2022-10-05T07:40:40.853Z,13.83
2022-10-05T07:41:39.843Z,13.84
2022-10-05T07:42:47.321Z,13.84
2022-10-05T07:44:01.149Z,13.84
2022-10-05T07:44:40.807Z,13.96
2022-10-05T07:45:39.848Z,13.95
2022-10-05T07:46:39.783Z,13.91
2022-10-05T07:47:39.791Z,14.06
2022-10-05T07:48:39.852Z,14.01
2022-10-05T07:49:39.752Z,13.95
2022-10-05T07:50:39.738Z,14.09
2022-10-05T07:51:39.728Z,14.02
2022-10-05T07:52:39.721Z,14.14
2022-10-05T07:53:39.706Z,14.07
2022-10-05T07:54:39.694Z,14.10
2022-10-05T07:55:39.677Z,14.16
2022-10-05T07:56:39.674Z,14.16
2022-10-05T07:57:39.675Z,14.28
2022-10-05T07:58:39.654Z,14.17
2022-10-05T07:59:39.641Z,14.27
2022-10-05T08:00:39.621Z,14.32
2022-10-05T08:01:39.720Z,14.09
2022-10-05T08:02:39.691Z,14.24
2022-10-05T08:03:39.597Z,14.21
2022-10-05T08:04:41.868Z,14.24
2022-10-05T08:05:39.571Z,14.27
2022-10-05T08:06:39.561Z,14.24
2022-10-05T08:07:39.567Z,14.28
2022-10-05T08:08:39.542Z,14.35
2022-10-05T08:09:39.519Z,14.25
2022-10-05T08:10:39.506Z,14.28
2022-10-05T08:11:39.505Z,14.27
2022-10-05T08:12:39.509Z,14.35
2022-10-05T08:13:39.483Z,14.32
2022-10-05T08:14:39.468Z,14.31
2022-10-05T08:15:39.513Z,14.31
2022-10-05T08:16:39.442Z,14.42
2022-10-05T08:17:39.438Z,14.35
2022-10-05T08:18:39.436Z,14.43
2022-10-05T08:19:39.410Z,14.43
2022-10-05T08:20:39.450Z,14.38
2022-10-05T08:21:39.386Z,14.49
2022-10-05T08:22:39.374Z,14.42
2022-10-05T08:23:39.390Z,14.46
2022-10-05T08:24:39.359Z,14.52
2022-10-05T08:25:39.343Z,14.54
2022-10-05T08:26:39.336Z,14.54
2022-10-05T08:27:39.319Z,14.53
2022-10-05T08:28:39.435Z,14.65
2022-10-05T08:29:39.297Z,14.65
2022-10-05T08:30:39.296Z,14.57
2022-10-05T08:31:39.356Z,14.65
2022-10-05T08:32:39.269Z,14.67
2022-10-05T08:33:39.279Z,14.72
2022-10-05T08:34:39.239Z,14.74
2022-10-05T08:35:39.241Z,14.83
2022-10-05T08:36:39.238Z,14.86
2022-10-05T08:37:39.213Z,14.94
2022-10-05T08:38:39.209Z,14.95
2022-10-05T08:39:39.186Z,14.98
2022-10-05T08:40:39.179Z,15.08
2022-10-05T08:41:39.165Z,15.11
2022-10-05T08:42:39.156Z,15.02
2022-10-05T08:43:39.170Z,15.17
2022-10-05T08:44:39.137Z,15.20
2022-10-05T08:45:39.117Z,15.15
2022-10-05T08:46:39.179Z,15.23
2022-10-05T08:47:39.103Z,15.26
2022-10-05T08:48:39.095Z,15.17
2022-10-05T08:49:39.083Z,15.19
2022-10-05T08:50:39.067Z,15.31
2022-10-05T08:51:39.050Z,15.26
2022-10-05T08:52:39.065Z,15.39
2022-10-05T08:53:39.047Z,15.39
2022-10-05T08:54:39.026Z,15.41
2022-10-05T08:55:39.011Z,15.46
2022-10-05T08:56:38.998Z,15.57
2022-10-05T08:57:38.990Z,15.66
2022-10-05T08:58:38.990Z,15.75
2022-10-05T08:59:38.962Z,15.74
2022-10-05T09:00:38.957Z,15.78
2022-10-05T09:01:39.027Z,15.81
2022-10-05T09:02:39.026Z,15.79
2022-10-05T09:03:38.940Z,15.88
2022-10-05T09:04:38.912Z,15.97
2022-10-05T09:05:38.893Z,16.01
2022-10-05T09:06:38.904Z,15.93
2022-10-05T09:07:38.882Z,16.00
2022-10-05T09:08:38.898Z,15.99
2022-10-05T09:09:38.854Z,16.14
2022-10-05T09:10:38.836Z,16.18
2022-10-05T09:11:38.849Z,16.34
2022-10-05T09:12:38.808Z,16.33
2022-10-05T09:13:38.814Z,16.42
2022-10-05T09:14:38.787Z,16.44
2022-10-05T09:15:38.850Z,16.63
2022-10-05T09:16:38.786Z,16.77
2022-10-05T09:17:39.497Z,16.74
2022-10-05T09:18:38.778Z,16.95
2022-10-05T09:19:38.737Z,16.95
2022-10-05T09:20:38.733Z,16.93
2022-10-05T09:21:38.715Z,16.99
2022-10-05T09:22:38.702Z,17.11
2022-10-05T09:23:38.716Z,17.14
2022-10-05T09:24:38.738Z,17.08
2022-10-05T09:25:38.676Z,17.15
2022-10-05T09:26:38.674Z,17.22
2022-10-05T09:27:38.661Z,17.17
2022-10-05T09:28:38.742Z,17.20
2022-10-05T09:29:38.646Z,17.25
2022-10-05T09:30:38.745Z,17.25
2022-10-05T09:31:38.601Z,17.20
2022-10-05T09:32:38.610Z,17.26
2022-10-05T09:33:38.648Z,17.32
2022-10-05T09:34:38.579Z,17.29
2022-10-05T09:35:38.582Z,17.48
2022-10-05T09:36:38.555Z,17.53
2022-10-05T09:37:38.540Z,17.63
2022-10-05T09:38:38.538Z,17.66
2022-10-05T09:39:38.512Z,17.62
2022-10-05T09:40:38.523Z,17.64
2022-10-05T09:41:38.488Z,17.84
2022-10-05T09:42:38.475Z,17.89
2022-10-05T09:43:38.485Z,17.95
2022-10-05T09:44:38.458Z,18.00
2022-10-05T09:45:38.449Z,18.03
2022-10-05T09:46:38.559Z,18.04
2022-10-05T09:47:38.425Z,18.25
2022-10-05T09:48:38.420Z,18.39
2022-10-05T09:49:38.396Z,18.46
2022-10-05T09:50:38.389Z,18.61
2022-10-05T09:51:38.381Z,18.68
2022-10-05T09:52:38.367Z,18.62
2022-10-05T09:53:38.538Z,18.82
2022-10-05T09:54:38.342Z,19.15
2022-10-05T09:55:38.337Z,19.39
2022-10-05T09:56:38.347Z,19.68
2022-10-05T09:57:38.307Z,19.57
2022-10-05T09:58:38.321Z,19.60
2022-10-05T09:59:38.285Z,19.63
2022-10-05T10:00:38.278Z,19.63
2022-10-05T10:01:38.334Z,19.69
2022-10-05T10:02:38.378Z,19.79
2022-10-05T10:03:38.256Z,19.86
2022-10-05T10:04:38.236Z,19.93
2022-10-05T10:05:38.220Z,19.91
2022-10-05T10:06:38.205Z,19.83
2022-10-05T10:07:38.197Z,19.78
2022-10-05T10:08:38.204Z,19.88
2022-10-05T10:09:38.876Z,19.98
2022-10-05T10:10:38.166Z,20.12
2022-10-05T10:11:38.160Z,20.09
2022-10-05T10:12:38.158Z,20.16
2022-10-05T10:13:38.154Z,20.15
2022-10-05T10:14:38.115Z,20.05
2022-10-05T10:15:38.162Z,19.97
2022-10-05T10:16:38.093Z,19.90
2022-10-05T10:17:38.086Z,19.91
2022-10-05T10:18:38.089Z,19.94
2022-10-05T10:19:38.062Z,20.02
2022-10-05T10:20:38.058Z,19.88
2022-10-05T10:21:38.044Z,19.75
2022-10-05T10:22:42.277Z,19.80
2022-10-05T10:23:39.033Z,19.73
2022-10-05T10:24:38.018Z,19.63
2022-10-05T10:25:38.004Z,19.68
2022-10-05T10:26:37.990Z,19.63
2022-10-05T10:27:37.979Z,19.83
2022-10-05T10:28:38.073Z,19.91
2022-10-05T10:29:37.965Z,19.90
2022-10-05T10:30:37.938Z,20.13
2022-10-05T10:31:37.927Z,20.30
2022-10-05T10:32:37.913Z,20.50
2022-10-05T10:33:37.917Z,20.66
2022-10-05T10:34:37.908Z,20.86
2022-10-05T10:35:37.885Z,20.91
2022-10-05T10:36:37.878Z,20.80
2022-10-05T10:37:37.861Z,20.59
2022-10-05T10:38:37.857Z,20.64
2022-10-05T10:39:37.859Z,20.69
2022-10-05T10:40:37.845Z,20.95
2022-10-05T10:41:37.823Z,20.96
2022-10-05T10:42:37.811Z,21.09
2022-10-05T10:43:37.805Z,20.89
2022-10-05T10:44:37.820Z,20.98
2022-10-05T10:45:37.775Z,21.01
2022-10-05T10:46:37.894Z,21.05
2022-10-05T10:47:37.758Z,21.16
2022-10-05T10:48:37.759Z,21.27
2022-10-05T10:49:37.758Z,21.54
2022-10-05T10:50:37.726Z,21.51
2022-10-05T10:51:37.711Z,21.53
2022-10-05T10:52:37.697Z,21.59
2022-10-05T10:53:37.698Z,21.64
2022-10-05T10:54:37.699Z,21.82
2022-10-05T10:55:37.671Z,21.92
2022-10-05T10:56:37.652Z,22.02
2022-10-05T10:57:37.651Z,22.14
2022-10-05T10:58:37.635Z,22.09
2022-10-05T10:59:37.632Z,22.10
2022-10-05T11:00:37.643Z,21.99
2022-10-05T11:01:37.622Z,21.97
2022-10-05T11:02:37.642Z,21.85
2022-10-05T11:03:37.582Z,21.98
2022-10-05T11:04:37.577Z,22.01
2022-10-05T11:05:37.564Z,21.90
2022-10-05T11:06:37.545Z,21.94
2022-10-05T11:07:37.536Z,22.14
2022-10-05T11:08:37.516Z,22.28
2022-10-05T11:09:37.540Z,22.38
2022-10-05T11:10:37.497Z,22.56
2022-10-05T11:11:37.483Z,22.56
2022-10-05T11:12:37.480Z,22.72
2022-10-05T11:13:37.469Z,22.90
2022-10-05T11:14:37.475Z,23.11
2022-10-05T11:15:37.507Z,23.11
2022-10-05T11:16:37.455Z,23.20
2022-10-05T11:17:37.421Z,23.15
2022-10-05T11:18:37.409Z,23.11
2022-10-05T11:19:46.381Z,23.05
2022-10-05T11:20:38.407Z,23.08
2022-10-05T11:21:37.381Z,23.08
2022-10-05T11:22:37.372Z,23.09
2022-10-05T11:23:39.040Z,23.09
2022-10-05T11:24:37.350Z,23.14
2022-10-05T11:25:37.377Z,23.09
2022-10-05T11:26:37.323Z,23.05
2022-10-05T11:27:38.026Z,23.08
2022-10-05T11:28:37.385Z,22.86
2022-10-05T11:29:37.296Z,22.94
2022-10-05T11:30:37.309Z,22.84
2022-10-05T11:31:37.367Z,22.92
2022-10-05T11:32:37.281Z,23.08
2022-10-05T11:33:37.243Z,23.23
2022-10-05T11:34:37.236Z,23.53
2022-10-05T11:35:37.237Z,23.49
2022-10-05T11:36:37.215Z,23.40
2022-10-05T11:37:37.209Z,23.42
2022-10-05T11:38:37.191Z,23.31
2022-10-05T11:39:37.175Z,23.47
2022-10-05T11:40:37.193Z,23.50
2022-10-05T11:41:37.176Z,23.50
2022-10-05T11:42:37.146Z,23.55
2022-10-05T11:43:37.139Z,23.71
2022-10-05T11:44:37.135Z,23.75
2022-10-05T11:45:37.132Z,23.75
2022-10-05T11:46:37.185Z,23.53
2022-10-05T11:47:37.095Z,23.40
2022-10-05T11:48:37.102Z,23.29
2022-10-05T11:49:37.073Z,23.09
2022-10-05T11:50:37.088Z,23.12
2022-10-05T11:51:37.048Z,23.20
2022-10-05T11:52:37.045Z,23.29
2022-10-05T11:53:37.031Z,23.26
2022-10-05T11:54:58.468Z,23.29
2022-10-05T11:55:38.018Z,23.46
2022-10-05T11:56:37.001Z,23.61
2022-10-05T11:57:36.988Z,23.65
2022-10-05T11:58:36.969Z,23.72
2022-10-05T11:59:36.965Z,23.87
2022-10-05T12:00:36.965Z,23.97
2022-10-05T12:01:36.942Z,24.17
2022-10-05T12:02:38.916Z,24.13
2022-10-05T12:03:37.151Z,23.85
2022-10-05T12:04:36.938Z,23.85
2022-10-05T12:05:36.908Z,23.85
2022-10-05T12:06:36.884Z,23.90
2022-10-05T12:07:36.874Z,23.97
2022-10-05T12:08:36.863Z,23.89
2022-10-05T12:09:36.850Z,23.86
2022-10-05T12:10:36.867Z,23.71
2022-10-05T12:11:36.829Z,23.85
2022-10-05T12:12:36.820Z,23.79
2022-10-05T12:13:36.829Z,23.70
2022-10-05T12:14:36.794Z,23.53
2022-10-05T12:15:36.807Z,23.50
2022-10-05T12:16:36.774Z,23.39
2022-10-05T12:17:36.762Z,23.55
2022-10-05T12:18:36.762Z,23.53
2022-10-05T12:19:36.749Z,23.46
2022-10-05T12:20:36.796Z,23.20
2022-10-05T12:21:36.717Z,23.14
2022-10-05T12:22:36.709Z,23.22
2022-10-05T12:23:36.697Z,23.38
2022-10-05T12:24:36.693Z,23.46
2022-10-05T12:25:36.682Z,23.35
2022-10-05T12:26:36.686Z,23.27
2022-10-05T12:27:36.659Z,23.17
2022-10-05T12:28:36.651Z,23.09
2022-10-05T12:29:36.636Z,23.40
2022-10-05T12:30:36.630Z,23.23
2022-10-05T12:31:36.665Z,23.11
2022-10-05T12:32:36.606Z,23.09
2022-10-05T12:33:36.586Z,23.05
2022-10-05T12:34:36.583Z,23.23
2022-10-05T12:35:47.856Z,23.02
2022-10-05T12:36:59.696Z,23.07
2022-10-05T12:37:37.543Z,23.08
2022-10-05T12:38:36.540Z,23.05
2022-10-05T12:39:36.534Z,23.01
2022-10-05T12:40:36.521Z,23.02
2022-10-05T12:41:36.911Z,23.14
2022-10-05T12:42:41.477Z,23.11
2022-10-05T12:43:37.504Z,23.04
2022-10-05T12:44:36.474Z,23.14
2022-10-05T12:45:36.510Z,23.15
2022-10-05T12:46:36.473Z,23.39
2022-10-05T12:47:36.443Z,23.58
2022-10-05T12:48:36.422Z,23.72
2022-10-05T12:49:36.414Z,23.87
2022-10-05T12:50:36.408Z,23.94
2022-10-05T12:51:36.409Z,24.17
2022-10-05T12:52:36.456Z,24.10